Time,TemperatureF,DewpointF,PressureIn,WindDirection,WindDirectionDegrees,WindSpeedMPH,WindSpeedGustMPH,Humidity,HourlyPrecipIn,Conditions,Clouds,dailyrainin,SoftwareType,DateUTC
2013-01-02 00:00:00,59.0,57.2,30.05,SSW,201,0.0,0.0,94,0.00,,---,0.00,VWS V14.01,2013-01-02 05:00:00,
2013-01-02 00:02:00,58.2,56.5,30.05,SSW,201,0.0,0.0,94,0.00,,---,0.00,VWS V14.01,2013-01-02 05:02:00,
2013-01-02 00:07:00,58.8,57.0,30.05,SSW,201,0.0,0.0,94,0.00,,---,0.00,VWS V14.01,2013-01-02 05:07:00,
2013-01-02 00:12:00,57.7,56.0,30.05,SSW,201,0.0,0.0,94,0.00,,---,0.00,VWS V14.01,2013-01-02 05:12:00,
2013-01-02 00:17:00,58.3,56.8,30.05,SSW,201,0.0,0.0,95,0.00,,---,0.00,VWS V14.01,2013-01-02 05:17:00,
2013-01-02 00:22:00,58.4,57.1,30.05,SSW,201,0.0,0.0,95,0.00,,---,0.00,VWS V14.01,2013-01-02 05:22:00,
2013-01-02 00:27:00,58.5,57.2,30.05,SSW,201,0.0,0.0,95,0.00,,---,0.00,VWS V14.01,2013-01-02 05:27:00,
2013-01-02 00:32:00,57.9,56.6,30.04,SSW,201,0.0,0.0,96,0.00,,---,0.00,VWS V14.01,2013-01-02 05:32:00,
2013-01-02 00:37:00,58.6,57.4,30.04,SSW,201,0.0,0.0,96,0.00,,---,0.00,VWS V14.01,2013-01-02 05:37:00,
2013-01-02 00:42:00,58.8,57.6,30.05,SSW,201,0.0,0.0,96,0.00,,---,0.00,VWS V14.01,2013-01-02 05:42:00,
2013-01-02 00:47:00,58.4,57.2,30.05,SSW,201,0.0,0.0,96,0.00,,---,0.00,VWS V14.01,2013-01-02 05:47:00,
2013-01-02 00:52:00,59.0,57.9,30.04,SSW,201,0.0,0.0,96,0.00,,---,0.00,VWS V14.01,2013-01-02 05:52:00,
2013-01-02 00:57:00,58.5,57.4,30.04,South,190,0.0,0.9,96,0.00,,---,0.00,VWS V14.01,2013-01-02 05:57:00,
2013-01-02 01:02:00,58.9,57.8,30.04,South,174,0.8,1.8,96,0.00,,---,0.00,VWS V14.01,2013-01-02 06:02:00,
2013-01-02 01:07:00,59.2,58.0,30.04,South,186,0.0,0.0,96,0.00,,---,0.00,VWS V14.01,2013-01-02 06:07:00,
2013-01-02 01:12:00,59.4,58.3,30.04,South,186,0.0,0.0,96,0.00,,---,0.00,VWS V14.01,2013-01-02 06:12:00,
2013-01-02 01:17:00,59.6,58.5,30.04,South,186,0.0,0.0,96,0.00,,---,0.00,VWS V14.01,2013-01-02 06:17:00,
2013-01-02 01:22:00,59.3,58.2,30.04,South,186,0.0,0.0,96,0.00,,---,0.00,VWS V14.01,2013-01-02 06:22:00,
2013-01-02 01:27:00,59.5,58.4,30.04,South,186,0.0,0.0,96,0.00,,---,0.00,VWS V14.01,2013-01-02 06:27:00,
2013-01-02 01:32:00,59.5,58.3,30.04,South,186,0.0,0.0,96,0.00,,---,0.00,VWS V14.01,2013-01-02 06:32:00,
2013-01-02 01:37:00,59.2,58.0,30.04,South,186,0.0,0.0,96,0.00,,---,0.00,VWS V14.01,2013-01-02 06:37:00,
2013-01-02 01:42:00,59.3,58.1,30.04,South,186,0.0,0.0,96,0.00,,---,0.00,VWS V14.01,2013-01-02 06:42:00,
2013-01-02 01:47:00,58.8,57.6,30.03,South,186,0.0,0.0,96,0.00,,---,0.00,VWS V14.01,2013-01-02 06:47:00,
2013-01-02 01:52:00,59.2,58.0,30.04,South,186,0.0,0.0,96,0.00,,---,0.00,VWS V14.01,2013-01-02 06:52:00,
2013-01-02 01:57:00,58.7,57.5,30.03,South,186,0.0,0.0,96,0.00,,---,0.00,VWS V14.01,2013-01-02 06:57:00,
2013-01-02 02:02:00,59.2,58.1,30.04,South,186,0.0,0.0,96,0.00,,---,0.00,VWS V14.01,2013-01-02 07:02:00,
2013-01-02 02:07:00,59.2,58.1,30.03,South,186,0.0,0.0,96,0.00,,---,0.00,VWS V14.01,2013-01-02 07:07:00,
2013-01-02 02:12:00,58.3,57.2,30.03,South,186,0.0,0.0,96,0.00,,---,0.00,VWS V14.01,2013-01-02 07:12:00,
2013-01-02 02:17:00,58.9,57.8,30.03,South,186,0.0,0.0,96,0.00,,---,0.00,VWS V14.01,2013-01-02 07:17:00,
2013-01-02 02:22:00,58.7,57.6,30.03,South,186,0.0,0.0,96,0.00,,---,0.00,VWS V14.01,2013-01-02 07:22:00,
2013-01-02 02:27:00,58.6,57.5,30.03,South,186,0.0,0.0,96,0.00,,---,0.00,VWS V14.01,2013-01-02 07:27:00,
2013-01-02 02:32:00,58.4,57.3,30.03,South,186,0.0,0.0,96,0.00,,---,0.00,VWS V14.01,2013-01-02 07:32:00,
2013-01-02 02:37:00,58.1,57.1,30.03,South,186,0.0,0.0,96,0.00,,---,0.00,VWS V14.01,2013-01-02 07:37:00,
2013-01-02 02:42:00,58.2,57.2,30.03,South,186,0.0,0.0,96,0.00,,---,0.00,VWS V14.01,2013-01-02 07:42:00,
2013-01-02 02:47:00,58.2,57.2,30.03,South,186,0.0,0.0,97,0.00,,---,0.00,VWS V14.01,2013-01-02 07:47:00,
2013-01-02 02:52:00,57.8,56.8,30.03,South,186,0.0,0.0,97,0.00,,---,0.00,VWS V14.01,2013-01-02 07:52:00,
2013-01-02 02:57:00,57.1,56.2,30.03,South,186,0.6,2.3,97,0.00,,---,0.00,VWS V14.01,2013-01-02 07:57:00,
2013-01-02 03:02:00,57.9,57.0,30.03,SSW,202,0.0,0.0,97,0.00,,---,0.00,VWS V14.01,2013-01-02 08:02:00,
2013-01-02 03:07:00,57.2,56.4,30.03,SSW,202,0.0,0.0,97,0.00,,---,0.00,VWS V14.01,2013-01-02 08:07:00,
2013-01-02 03:12:00,57.7,56.9,30.03,SSW,202,0.0,0.0,97,0.00,,---,0.00,VWS V14.01,2013-01-02 08:12:00,
2013-01-02 03:17:00,57.9,57.1,30.03,SSW,202,0.0,0.0,97,0.00,,---,0.00,VWS V14.01,2013-01-02 08:17:00,
2013-01-02 03:22:00,57.5,56.7,30.03,SSW,202,0.0,0.0,97,0.00,,---,0.00,VWS V14.01,2013-01-02 08:22:00,
2013-01-02 03:27:00,57.8,57.1,30.03,SSW,202,0.0,0.0,98,0.00,,---,0.00,VWS V14.01,2013-01-02 08:27:00,
2013-01-02 03:32:00,57.2,56.5,30.03,SSW,202,0.0,0.0,98,0.00,,---,0.00,VWS V14.01,2013-01-02 08:32:00,
2013-01-02 03:37:00,57.2,56.6,30.03,SSW,202,0.0,0.0,98,0.00,,---,0.00,VWS V14.01,2013-01-02 08:37:00,
2013-01-02 03:42:00,57.8,57.2,30.03,SSW,202,0.0,0.0,98,0.00,,---,0.00,VWS V14.01,2013-01-02 08:42:00,
2013-01-02 03:47:00,56.9,56.4,30.03,SSW,202,0.0,0.0,98,0.00,,---,0.00,VWS V14.01,2013-01-02 08:47:00,
2013-01-02 03:52:00,57.4,57.0,30.03,SSW,202,0.0,0.0,98,0.00,,---,0.00,VWS V14.01,2013-01-02 08:52:00,
2013-01-02 03:57:00,57.1,56.7,30.03,SSW,202,0.0,0.0,98,0.00,,---,0.00,VWS V14.01,2013-01-02 08:57:00,
2013-01-02 04:02:00,57.4,57.0,30.03,SSW,202,0.0,0.0,99,0.00,,---,0.00,VWS V14.01,2013-01-02 09:02:00,
2013-01-02 04:07:00,57.2,56.9,30.03,SSW,202,0.0,0.0,99,0.00,,---,0.00,VWS V14.01,2013-01-02 09:07:00,
2013-01-02 04:12:00,57.1,56.8,30.03,SSW,202,0.0,0.0,99,0.00,,---,0.00,VWS V14.01,2013-01-02 09:12:00,
2013-01-02 04:17:00,57.5,57.2,30.03,SSW,202,0.0,0.0,99,0.00,,---,0.00,VWS V14.01,2013-01-02 09:17:00,
2013-01-02 04:21:00,57.6,57.3,30.03,SSW,202,0.0,0.0,99,0.00,,---,0.00,VWS V14.01,2013-01-02 09:21:00,
2013-01-02 04:26:00,57.7,57.4,30.03,SSW,202,0.0,0.0,99,0.00,,---,0.00,VWS V14.01,2013-01-02 09:26:00,
2013-01-02 04:32:00,57.2,57.0,30.02,SSW,202,0.0,0.0,99,0.00,,---,0.00,VWS V14.01,2013-01-02 09:32:00,
2013-01-02 04:36:00,57.6,57.3,30.03,SSW,202,0.0,0.0,99,0.00,,---,0.00,VWS V14.01,2013-01-02 09:36:00,
2013-01-02 04:41:00,57.5,57.2,30.03,SSW,202,0.0,0.0,99,0.00,,---,0.00,VWS V14.01,2013-01-02 09:41:00,
2013-01-02 04:46:00,57.0,56.8,30.03,SSW,202,0.0,0.0,99,0.00,,---,0.00,VWS V14.01,2013-01-02 09:46:00,
2013-01-02 04:51:00,57.3,57.1,30.03,SSW,202,0.0,0.0,99,0.00,,---,0.00,VWS V14.01,2013-01-02 09:51:00,
2013-01-02 04:56:00,57.2,57.0,30.03,SSW,202,0.0,0.0,99,0.00,,---,0.00,VWS V14.01,2013-01-02 09:56:00,
2013-01-02 05:01:00,57.0,56.8,30.03,SSW,202,0.0,0.0,99,0.00,,---,0.00,VWS V14.01,2013-01-02 10:01:00,
2013-01-02 05:06:00,56.6,56.4,30.03,SSW,202,0.0,0.0,99,0.00,,---,0.00,VWS V14.01,2013-01-02 10:06:00,
2013-01-02 05:11:00,56.5,56.3,30.03,SSW,202,0.0,0.0,99,0.00,,---,0.00,VWS V14.01,2013-01-02 10:11:00,
2013-01-02 05:16:00,56.8,56.6,30.03,SSW,202,0.0,0.0,99,0.00,,---,0.00,VWS V14.01,2013-01-02 10:16:00,
2013-01-02 05:21:00,56.6,56.4,30.03,SSW,202,0.0,0.0,99,0.00,,---,0.00,VWS V14.01,2013-01-02 10:21:00,
2013-01-02 05:26:00,57.1,56.9,30.03,SSW,202,0.0,0.0,99,0.00,,---,0.00,VWS V14.01,2013-01-02 10:26:00,
2013-01-02 05:31:00,56.9,56.8,30.03,SSW,202,0.0,0.0,100,0.00,,---,0.00,VWS V14.01,2013-01-02 10:31:00,
2013-01-02 05:36:00,57.0,56.9,30.03,SSW,202,0.0,0.0,100,0.00,,---,0.00,VWS V14.01,2013-01-02 10:36:00,
2013-01-02 05:41:00,57.0,56.9,30.03,SSW,202,0.0,0.0,100,0.00,,---,0.00,VWS V14.01,2013-01-02 10:41:00,
2013-01-02 05:46:00,56.1,56.0,30.03,SSW,202,0.0,0.0,100,0.00,,---,0.00,VWS V14.01,2013-01-02 10:46:00,
2013-01-02 05:51:00,56.9,56.8,30.03,SSW,202,0.0,0.0,100,0.00,,---,0.00,VWS V14.01,2013-01-02 10:51:00,
2013-01-02 05:56:00,56.8,56.7,30.03,SSW,202,0.0,0.0,100,0.00,,---,0.00,VWS V14.01,2013-01-02 10:56:00,
2013-01-02 06:01:00,56.6,56.5,30.03,SSW,202,0.0,0.0,100,0.00,,---,0.00,VWS V14.01,2013-01-02 11:01:00,
2013-01-02 06:06:00,56.7,56.7,30.03,SE,146,0.0,0.0,100,0.00,,---,0.00,VWS V14.01,2013-01-02 11:06:00,
2013-01-02 06:11:00,56.1,56.0,30.03,SE,146,0.0,0.0,100,0.00,,---,0.00,VWS V14.01,2013-01-02 11:11:00,
2013-01-02 06:16:00,57.0,57.0,30.04,SE,146,0.0,0.0,100,0.00,,---,0.00,VWS V14.01,2013-01-02 11:16:00,
2013-01-02 06:21:00,56.3,56.3,30.04,SSW,197,0.0,0.0,100,0.00,,---,0.00,VWS V14.01,2013-01-02 11:21:00,
2013-01-02 06:26:00,57.3,57.3,30.04,SSW,197,0.0,0.0,100,0.00,,---,0.00,VWS V14.01,2013-01-02 11:26:00,
2013-01-02 06:31:00,57.2,57.2,30.04,SSW,197,0.0,0.0,100,0.00,,---,0.00,VWS V14.01,2013-01-02 11:31:00,
2013-01-02 06:36:00,57.3,57.3,30.04,SSW,197,0.0,0.0,100,0.00,,---,0.00,VWS V14.01,2013-01-02 11:36:00,
2013-01-02 06:41:00,56.8,56.8,30.04,SSW,197,0.0,0.0,100,0.00,,---,0.00,VWS V14.01,2013-01-02 11:41:00,
2013-01-02 06:46:00,56.7,56.7,30.04,SSW,197,0.0,0.0,100,0.00,,---,0.00,VWS V14.01,2013-01-02 11:46:00,
2013-01-02 06:51:00,57.0,57.0,30.04,SSW,197,0.0,0.0,100,0.00,,---,0.00,VWS V14.01,2013-01-02 11:51:00,
2013-01-02 06:56:00,57.0,57.0,30.05,SSW,197,0.0,0.0,100,0.00,,---,0.00,VWS V14.01,2013-01-02 11:56:00,
2013-01-02 07:01:00,56.4,56.4,30.05,SSW,197,0.0,0.0,100,0.00,,---,0.00,VWS V14.01,2013-01-02 12:01:00,
2013-01-02 07:06:00,56.8,56.8,30.05,SSW,197,0.0,0.0,100,0.00,,---,0.00,VWS V14.01,2013-01-02 12:06:00,
2013-01-02 07:11:00,56.5,56.5,30.05,SSW,197,0.0,0.0,100,0.00,,---,0.00,VWS V14.01,2013-01-02 12:11:00,
2013-01-02 07:16:00,57.3,57.3,30.05,SSW,208,0.6,0.9,100,0.00,,---,0.00,VWS V14.01,2013-01-02 12:16:00,
2013-01-02 07:21:00,57.1,57.1,30.05,SSW,210,1.1,1.2,100,0.00,,---,0.00,VWS V14.01,2013-01-02 12:21:00,
2013-01-02 07:26:00,57.0,57.0,30.05,SSE,152,0.0,0.0,100,0.00,,---,0.00,VWS V14.01,2013-01-02 12:26:00,
2013-01-02 07:31:00,57.9,57.9,30.05,SSE,152,0.0,0.0,100,0.00,,---,0.00,VWS V14.01,2013-01-02 12:31:00,
2013-01-02 07:36:00,57.8,57.8,30.05,SSE,152,0.0,0.0,100,0.00,,---,0.00,VWS V14.01,2013-01-02 12:36:00,
2013-01-02 07:41:00,57.8,57.8,30.05,SSE,152,0.0,0.0,100,0.00,,---,0.00,VWS V14.01,2013-01-02 12:41:00,
2013-01-02 07:46:00,58.1,58.1,30.06,SSE,152,0.0,0.0,100,0.00,,---,0.00,VWS V14.01,2013-01-02 12:46:00,
2013-01-02 07:51:00,57.9,57.9,30.06,SSE,152,0.0,0.0,100,0.00,,---,0.00,VWS V14.01,2013-01-02 12:51:00,
2013-01-02 07:56:00,57.9,57.9,30.06,SSE,152,0.0,0.0,100,0.00,,---,0.00,VWS V14.01,2013-01-02 12:56:00,
2013-01-02 08:01:00,58.2,58.2,30.06,SSE,152,0.0,0.0,100,0.00,,---,0.00,VWS V14.01,2013-01-02 13:01:00,
2013-01-02 08:06:00,58.0,58.0,30.06,SSE,152,0.0,0.0,100,0.00,,---,0.00,VWS V14.01,2013-01-02 13:06:00,
2013-01-02 08:11:00,58.7,58.7,30.06,SSW,195,0.0,0.0,100,0.00,,---,0.00,VWS V14.01,2013-01-02 13:11:00,
2013-01-02 08:16:00,59.1,59.1,30.06,South,186,0.0,0.0,100,0.00,,---,0.00,VWS V14.01,2013-01-02 13:16:00,
2013-01-02 08:21:00,59.5,59.5,30.06,SSW,211,2.1,2.3,100,0.00,,---,0.00,VWS V14.01,2013-01-02 13:21:00,
2013-01-02 08:26:00,59.2,59.2,30.06,South,174,0.7,1.6,100,0.00,,---,0.00,VWS V14.01,2013-01-02 13:26:00,
2013-01-02 08:31:00,59.8,59.8,30.06,SSW,194,4.1,4.1,100,0.00,,---,0.00,VWS V14.01,2013-01-02 13:31:00,
2013-01-02 08:36:00,60.6,60.6,30.06,SSE,150,0.0,0.0,100,0.00,,---,0.00,VWS V14.01,2013-01-02 13:36:00,
2013-01-02 08:41:00,61.2,61.1,30.06,SSE,165,3.4,3.4,100,0.00,,---,0.00,VWS V14.01,2013-01-02 13:41:00,
2013-01-02 08:46:00,61.1,60.9,30.06,South,177,2.4,2.4,99,0.00,,---,0.00,VWS V14.01,2013-01-02 13:46:00,
2013-01-02 08:51:00,62.0,61.7,30.06,South,184,3.4,4.5,99,0.00,,---,0.00,VWS V14.01,2013-01-02 13:51:00,
2013-01-02 08:56:00,62.4,62.0,30.06,South,188,4.2,4.7,99,0.00,,---,0.00,VWS V14.01,2013-01-02 13:56:00,
2013-01-02 09:01:00,62.0,61.5,30.06,South,184,5.7,5.7,98,0.00,,---,0.00,VWS V14.01,2013-01-02 14:01:00,
2013-01-02 09:06:00,62.9,62.3,30.07,South,191,5.0,5.8,98,0.00,,---,0.00,VWS V14.01,2013-01-02 14:06:00,
2013-01-02 09:11:00,63.1,62.4,30.06,SE,135,3.4,4.8,98,0.00,,---,0.00,VWS V14.01,2013-01-02 14:11:00,
2013-01-02 09:16:00,63.3,62.5,30.07,SE,139,0.0,0.0,97,0.00,,---,0.00,VWS V14.01,2013-01-02 14:16:00,
2013-01-02 09:21:00,64.7,63.7,30.07,SSW,210,1.9,1.9,96,0.00,,---,0.00,VWS V14.01,2013-01-02 14:21:00,
2013-01-02 09:26:00,64.4,63.2,30.07,SSW,201,5.5,5.5,96,0.00,,---,0.00,VWS V14.01,2013-01-02 14:26:00,
2013-01-02 09:31:00,65.0,63.7,30.07,SW,215,3.3,4.6,96,0.00,,---,0.00,VWS V14.01,2013-01-02 14:31:00,
2013-01-02 09:36:00,66.3,64.7,30.07,SSW,205,4.9,5.1,95,0.00,,---,0.00,VWS V14.01,2013-01-02 14:36:00,
2013-01-02 09:41:00,66.2,64.1,30.07,South,186,3.0,4.2,93,0.00,,---,0.00,VWS V14.01,2013-01-02 14:41:00,
2013-01-02 09:46:00,67.7,65.1,30.07,SSW,198,1.6,1.6,91,0.00,,---,0.00,VWS V14.01,2013-01-02 14:46:00,
2013-01-02 09:51:00,68.2,65.3,30.07,SW,218,1.4,5.5,90,0.00,,---,0.00,VWS V14.01,2013-01-02 14:51:00,
2013-01-02 09:56:00,68.6,65.4,30.07,SE,141,7.0,7.0,89,0.00,,---,0.00,VWS V14.01,2013-01-02 14:56:00,
2013-01-02 10:01:00,68.6,65.2,30.07,SW,236,6.2,7.5,89,0.00,,---,0.00,VWS V14.01,2013-01-02 15:01:00,
2013-01-02 10:06:00,69.3,65.7,30.06,SSW,197,3.8,3.8,88,0.00,,---,0.00,VWS V14.01,2013-01-02 15:06:00,
2013-01-02 10:11:00,69.2,65.3,30.07,East,79,2.1,2.1,87,0.00,,---,0.00,VWS V14.01,2013-01-02 15:11:00,
2013-01-02 10:16:00,69.9,65.7,30.07,SSW,193,8.3,8.3,86,0.00,,---,0.00,VWS V14.01,2013-01-02 15:16:00,
2013-01-02 10:21:00,70.2,65.7,30.07,SW,218,2.9,9.3,86,0.00,,---,0.00,VWS V14.01,2013-01-02 15:21:00,
2013-01-02 10:26:00,70.7,65.8,30.07,SW,231,3.5,3.5,84,0.00,,---,0.00,VWS V14.01,2013-01-02 15:26:00,
2013-01-02 10:31:00,71.3,65.8,30.06,SW,228,3.9,7.1,83,0.00,,---,0.00,VWS V14.01,2013-01-02 15:31:00,
2013-01-02 10:36:00,71.1,65.2,30.06,SSE,160,5.3,9.4,82,0.00,,---,0.00,VWS V14.01,2013-01-02 15:36:00,
2013-01-02 10:41:00,72.4,66.3,30.06,South,179,5.8,9.7,81,0.00,,---,0.00,VWS V14.01,2013-01-02 15:41:00,
2013-01-02 10:46:00,71.5,65.4,30.06,SW,233,8.5,9.8,81,0.00,,---,0.00,VWS V14.01,2013-01-02 15:46:00,
2013-01-02 10:51:00,72.2,66.0,30.06,SSW,202,1.9,2.2,81,0.00,,---,0.00,VWS V14.01,2013-01-02 15:51:00,
2013-01-02 10:56:00,73.1,66.6,30.06,South,173,6.6,6.6,80,0.00,,---,0.00,VWS V14.01,2013-01-02 15:56:00,
2013-01-02 11:01:00,72.7,65.4,30.05,South,172,8.5,8.5,78,0.00,,---,0.00,VWS V14.01,2013-01-02 16:01:00,
2013-01-02 11:06:00,73.6,65.9,30.05,SSW,205,8.6,8.6,77,0.00,,---,0.00,VWS V14.01,2013-01-02 16:06:00,
2013-01-02 11:11:00,74.1,66.4,30.05,South,186,7.1,7.9,77,0.00,,---,0.00,VWS V14.01,2013-01-02 16:11:00,
2013-01-02 11:16:00,74.3,66.0,30.05,WSW,249,8.6,9.4,75,0.00,,---,0.00,VWS V14.01,2013-01-02 16:16:00,
2013-01-02 11:21:00,74.7,66.0,30.05,SSW,195,5.3,5.7,74,0.00,,---,0.00,VWS V14.01,2013-01-02 16:21:00,
2013-01-02 11:26:00,74.7,65.4,30.05,SW,219,5.0,5.0,73,0.00,,---,0.00,VWS V14.01,2013-01-02 16:26:00,
2013-01-02 11:31:00,74.9,65.5,30.05,WSW,242,11.6,11.6,72,0.00,,---,0.00,VWS V14.01,2013-01-02 16:31:00,
2013-01-02 11:36:00,75.2,65.6,30.04,SSW,200,3.0,3.0,72,0.00,,---,0.00,VWS V14.01,2013-01-02 16:36:00,
2013-01-02 11:41:00,75.0,64.9,30.04,SW,217,8.2,8.7,71,0.00,,---,0.00,VWS V14.01,2013-01-02 16:41:00,
2013-01-02 11:46:00,76.1,65.5,30.04,WSW,246,6.8,10.3,70,0.00,,---,0.00,VWS V14.01,2013-01-02 16:46:00,
2013-01-02 11:51:00,76.1,65.3,30.04,SW,222,4.9,5.2,69,0.00,,---,0.00,VWS V14.01,2013-01-02 16:51:00,
2013-01-02 11:56:00,75.2,64.1,30.03,SW,218,5.8,12.0,68,0.00,,---,0.00,VWS V14.01,2013-01-02 16:56:00,
2013-01-02 12:01:00,75.4,64.6,30.03,WSW,238,3.6,7.1,69,0.00,,---,0.00,VWS V14.01,2013-01-02 17:01:00,
2013-01-02 12:06:00,76.4,65.1,30.02,SW,214,4.8,8.4,68,0.00,,---,0.00,VWS V14.01,2013-01-02 17:06:00,
2013-01-02 12:11:00,76.9,64.8,30.02,SSW,198,7.3,7.3,66,0.00,,---,0.00,VWS V14.01,2013-01-02 17:11:00,
2013-01-02 12:16:00,76.2,64.2,30.02,SW,228,5.5,11.7,66,0.00,,---,0.00,VWS V14.01,2013-01-02 17:16:00,
2013-01-02 12:21:00,76.3,63.7,30.02,SSW,201,7.6,8.9,65,0.00,,---,0.00,VWS V14.01,2013-01-02 17:21:00,
2013-01-02 12:26:00,76.9,64.0,30.02,WSW,242,3.4,6.3,64,0.00,,---,0.00,VWS V14.01,2013-01-02 17:26:00,
2013-01-02 12:31:00,77.1,64.0,30.01,SW,229,10.6,12.3,64,0.00,,---,0.00,VWS V14.01,2013-01-02 17:31:00,
2013-01-02 12:36:00,76.8,64.2,30.01,WSW,242,1.8,7.0,65,0.00,,---,0.00,VWS V14.01,2013-01-02 17:36:00,
2013-01-02 12:41:00,77.9,64.3,30.01,WSW,257,5.0,10.5,63,0.00,,---,0.00,VWS V14.01,2013-01-02 17:41:00,
2013-01-02 12:46:00,78.0,64.2,30.01,WSW,242,4.9,8.0,62,0.00,,---,0.00,VWS V14.01,2013-01-02 17:46:00,
2013-01-02 12:51:00,78.2,63.5,30.00,WSW,238,8.8,10.9,61,0.00,,---,0.00,VWS V14.01,2013-01-02 17:51:00,
2013-01-02 12:56:00,77.9,63.0,30.00,SSW,212,9.2,9.3,60,0.00,,---,0.00,VWS V14.01,2013-01-02 17:56:00,
2013-01-02 13:01:00,78.9,63.3,30.00,SW,217,6.8,9.3,59,0.00,,---,0.00,VWS V14.01,2013-01-02 18:01:00,
2013-01-02 13:06:00,79.1,63.4,29.99,South,184,9.1,9.3,59,0.00,,---,0.00,VWS V14.01,2013-01-02 18:06:00,
2013-01-02 13:11:00,79.3,62.7,30.00,West,259,5.1,7.2,57,0.00,,---,0.00,VWS V14.01,2013-01-02 18:11:00,
2013-01-02 13:16:00,78.8,62.6,29.99,SW,235,5.7,11.3,58,0.00,,---,0.00,VWS V14.01,2013-01-02 18:16:00,
2013-01-02 13:21:00,79.0,63.0,29.99,SW,229,5.7,10.4,58,0.00,,---,0.00,VWS V14.01,2013-01-02 18:21:00,
2013-01-02 13:26:00,78.7,62.8,29.99,South,180,9.2,9.5,58,0.00,,---,0.00,VWS V14.01,2013-01-02 18:26:00,
2013-01-02 13:31:00,79.0,62.7,29.99,West,262,2.0,9.0,57,0.00,,---,0.00,VWS V14.01,2013-01-02 18:31:00,
2013-01-02 13:36:00,79.9,63.3,29.99,West,281,4.2,8.0,57,0.00,,---,0.00,VWS V14.01,2013-01-02 18:36:00,
2013-01-02 13:41:00,79.2,62.6,29.99,SSW,208,5.0,6.3,57,0.00,,---,0.00,VWS V14.01,2013-01-02 18:41:00,
2013-01-02 13:46:00,79.0,62.6,29.99,SW,218,5.3,8.3,57,0.00,,---,0.00,VWS V14.01,2013-01-02 18:46:00,
2013-01-02 13:51:00,78.1,62.1,29.99,SSW,210,1.7,4.5,58,0.00,,---,0.00,VWS V14.01,2013-01-02 18:51:00,
2013-01-02 13:56:00,79.0,62.6,29.99,SW,215,4.3,8.5,57,0.00,,---,0.00,VWS V14.01,2013-01-02 18:56:00,
2013-01-02 14:01:00,78.2,61.9,29.99,WSW,240,7.6,11.0,57,0.00,,---,0.00,VWS V14.01,2013-01-02 19:01:00,
2013-01-02 14:06:00,78.0,61.9,29.98,WSW,239,6.0,6.3,58,0.00,,---,0.00,VWS V14.01,2013-01-02 19:06:00,
2013-01-02 14:11:00,78.3,62.6,29.98,WNW,301,0.0,3.9,58,0.00,,---,0.00,VWS V14.01,2013-01-02 19:11:00,
2013-01-02 14:16:00,78.0,61.9,29.98,West,267,4.3,7.5,58,0.00,,---,0.00,VWS V14.01,2013-01-02 19:16:00,
2013-01-02 14:21:00,77.8,61.8,29.98,WSW,245,7.8,7.8,58,0.00,,---,0.00,VWS V14.01,2013-01-02 19:21:00,
2013-01-02 14:26:00,78.0,62.2,29.98,WSW,243,2.8,8.8,58,0.00,,---,0.00,VWS V14.01,2013-01-02 19:26:00,
2013-01-02 14:31:00,78.1,62.2,29.98,West,280,2.1,7.3,58,0.00,,---,0.00,VWS V14.01,2013-01-02 19:31:00,
2013-01-02 14:36:00,77.8,61.8,29.98,West,270,8.8,8.8,58,0.00,,---,0.00,VWS V14.01,2013-01-02 19:36:00,
2013-01-02 14:41:00,78.3,62.5,29.98,SSW,200,3.5,6.5,58,0.00,,---,0.00,VWS V14.01,2013-01-02 19:41:00,
2013-01-02 14:46:00,78.0,62.0,29.98,SW,233,6.2,9.1,58,0.00,,---,0.00,VWS V14.01,2013-01-02 19:46:00,
2013-01-02 14:51:00,79.0,62.8,29.98,WNW,291,5.4,8.4,58,0.00,,---,0.00,VWS V14.01,2013-01-02 19:51:00,
2013-01-02 14:56:00,78.9,62.5,29.98,WNW,285,3.0,5.7,57,0.00,,---,0.00,VWS V14.01,2013-01-02 19:56:00,
2013-01-02 15:01:00,78.1,61.8,29.98,SW,232,3.0,7.5,57,0.00,,---,0.00,VWS V14.01,2013-01-02 20:01:00,
2013-01-02 15:06:00,78.2,61.8,29.98,SW,233,5.2,6.3,57,0.00,,---,0.00,VWS V14.01,2013-01-02 20:06:00,
2013-01-02 15:11:00,78.8,62.4,29.98,WSW,243,4.3,5.4,57,0.00,,---,0.00,VWS V14.01,2013-01-02 20:11:00,
2013-01-02 15:16:00,78.1,62.1,29.98,SW,229,3.4,5.5,58,0.00,,---,0.00,VWS V14.01,2013-01-02 20:16:00,
2013-01-02 15:21:00,78.9,62.4,29.98,SSW,195,5.0,9.1,57,0.00,,---,0.00,VWS V14.01,2013-01-02 20:21:00,
2013-01-02 15:26:00,78.1,61.8,29.98,WSW,256,5.5,7.4,57,0.00,,---,0.00,VWS V14.01,2013-01-02 20:26:00,
2013-01-02 15:31:00,78.5,62.3,29.99,WSW,246,3.9,6.8,58,0.00,,---,0.00,VWS V14.01,2013-01-02 20:31:00,
2013-01-02 15:36:00,78.2,62.2,29.98,WSW,240,2.6,5.1,58,0.00,,---,0.00,VWS V14.01,2013-01-02 20:36:00,
2013-01-02 15:41:00,78.5,62.5,29.99,WSW,253,6.1,6.8,58,0.00,,---,0.00,VWS V14.01,2013-01-02 20:41:00,
2013-01-02 15:46:00,78.7,62.8,29.99,West,278,0.7,3.5,58,0.00,,---,0.00,VWS V14.01,2013-01-02 20:46:00,
2013-01-02 15:51:00,78.3,62.3,29.99,WSW,240,2.5,2.5,58,0.00,,---,0.00,VWS V14.01,2013-01-02 20:51:00,
2013-01-02 15:56:00,79.0,63.0,29.99,SW,233,1.0,1.9,58,0.00,,---,0.00,VWS V14.01,2013-01-02 20:56:00,
2013-01-02 16:01:00,78.8,62.0,29.99,SW,236,6.9,8.3,56,0.00,,---,0.00,VWS V14.01,2013-01-02 21:01:00,
2013-01-02 16:06:00,78.9,62.2,29.99,WSW,239,3.7,5.5,57,0.00,,---,0.00,VWS V14.01,2013-01-02 21:06:00,
2013-01-02 16:11:00,78.5,62.1,30.00,WSW,253,3.2,4.0,57,0.00,,---,0.00,VWS V14.01,2013-01-02 21:11:00,
2013-01-02 16:16:00,78.8,62.4,30.00,WSW,239,4.0,5.5,57,0.00,,---,0.00,VWS V14.01,2013-01-02 21:16:00,
2013-01-02 16:21:00,78.3,62.3,29.99,SW,228,2.7,3.2,58,0.00,,---,0.00,VWS V14.01,2013-01-02 21:21:00,
2013-01-02 16:26:00,77.7,61.8,29.99,SW,221,2.7,2.8,58,0.00,,---,0.00,VWS V14.01,2013-01-02 21:26:00,
2013-01-02 16:31:00,77.5,61.6,30.00,SW,236,3.4,3.9,58,0.00,,---,0.00,VWS V14.01,2013-01-02 21:31:00,
2013-01-02 16:36:00,78.5,62.6,29.99,SW,232,2.8,3.0,58,0.00,,---,0.00,VWS V14.01,2013-01-02 21:36:00,
2013-01-02 16:41:00,78.1,62.2,29.99,WSW,240,3.0,3.0,58,0.00,,---,0.00,VWS V14.01,2013-01-02 21:41:00,
2013-01-02 16:46:00,78.4,62.4,30.00,WSW,253,0.0,0.0,58,0.00,,---,0.00,VWS V14.01,2013-01-02 21:46:00,
2013-01-02 16:51:00,78.2,62.3,30.00,SSW,195,1.8,2.8,58,0.00,,---,0.00,VWS V14.01,2013-01-02 21:51:00,
2013-01-02 16:56:00,78.4,62.6,30.00,SW,228,1.6,3.0,58,0.00,,---,0.00,VWS V14.01,2013-01-02 21:56:00,
2013-01-02 17:01:00,77.9,62.4,30.00,SW,214,0.0,0.0,59,0.00,,---,0.00,VWS V14.01,2013-01-02 22:01:00,
2013-01-02 17:06:00,77.8,62.1,30.00,WSW,245,0.7,2.8,58,0.00,,---,0.00,VWS V14.01,2013-01-02 22:06:00,
2013-01-02 17:11:00,77.7,62.1,30.00,WSW,238,1.4,2.5,59,0.00,,---,0.00,VWS V14.01,2013-01-02 22:11:00,
2013-01-02 17:16:00,77.9,62.5,30.00,SW,225,0.0,0.0,59,0.00,,---,0.00,VWS V14.01,2013-01-02 22:16:00,
2013-01-02 17:21:00,77.7,62.5,30.00,SW,225,0.0,0.0,60,0.00,,---,0.00,VWS V14.01,2013-01-02 22:21:00,
2013-01-02 17:26:00,77.4,62.5,30.00,SW,225,0.0,0.0,60,0.00,,---,0.00,VWS V14.01,2013-01-02 22:26:00,
2013-01-02 17:31:00,77.1,62.5,30.00,SW,225,0.0,0.0,61,0.00,,---,0.00,VWS V14.01,2013-01-02 22:31:00,
2013-01-02 17:36:00,77.1,62.8,30.00,SSW,193,0.0,0.0,61,0.00,,---,0.00,VWS V14.01,2013-01-02 22:36:00,
2013-01-02 17:41:00,76.7,62.8,30.00,SW,217,0.0,0.0,62,0.00,,---,0.00,VWS V14.01,2013-01-02 22:41:00,
2013-01-02 17:46:00,76.1,62.4,30.00,SW,215,0.0,0.0,62,0.00,,---,0.00,VWS V14.01,2013-01-02 22:46:00,
2013-01-02 17:51:00,75.9,62.5,30.00,SW,215,0.0,0.0,63,0.00,,---,0.00,VWS V14.01,2013-01-02 22:51:00,
2013-01-02 17:56:00,75.7,62.7,30.00,SW,215,0.0,0.0,64,0.00,,---,0.00,VWS V14.01,2013-01-02 22:56:00,
2013-01-02 18:01:00,74.2,61.7,30.01,SW,215,0.0,0.0,65,0.00,,---,0.00,VWS V14.01,2013-01-02 23:01:00,
2013-01-02 18:06:00,73.4,61.4,30.01,SW,215,0.0,0.0,66,0.00,,---,0.00,VWS V14.01,2013-01-02 23:06:00,
2013-01-02 18:11:00,74.2,62.5,30.01,SW,215,0.0,0.0,67,0.00,,---,0.00,VWS V14.01,2013-01-02 23:11:00,
2013-01-02 18:16:00,73.9,62.6,30.01,SW,215,0.0,0.0,68,0.00,,---,0.00,VWS V14.01,2013-01-02 23:16:00,
2013-01-02 18:21:00,72.6,61.7,30.01,SW,215,0.0,0.0,68,0.00,,---,0.00,VWS V14.01,2013-01-02 23:21:00,
2013-01-02 18:26:00,72.7,62.1,30.01,SW,215,0.0,0.0,69,0.00,,---,0.00,VWS V14.01,2013-01-02 23:26:00,
2013-01-02 18:31:00,72.4,62.2,30.01,WNW,283,1.4,2.2,70,0.00,,---,0.00,VWS V14.01,2013-01-02 23:31:00,
2013-01-02 18:36:00,72.5,62.4,30.02,West,260,0.0,0.0,70,0.00,,---,0.00,VWS V14.01,2013-01-02 23:36:00,
2013-01-02 18:41:00,72.4,62.3,30.02,West,264,0.0,0.0,71,0.00,,---,0.00,VWS V14.01,2013-01-02 23:41:00,
2013-01-02 18:46:00,72.5,62.5,30.02,WNW,283,0.9,2.0,71,0.00,,---,0.00,VWS V14.01,2013-01-02 23:46:00,
2013-01-02 18:51:00,72.7,62.9,30.02,WNW,284,1.5,2.7,71,0.00,,---,0.00,VWS V14.01,2013-01-02 23:51:00,
2013-01-02 18:56:00,72.8,63.2,30.02,WSW,257,0.0,0.9,72,0.00,,---,0.00,VWS V14.01,2013-01-02 23:56:00,
2013-01-02 19:01:00,71.9,62.6,30.02,WNW,283,1.2,2.7,73,0.00,,---,0.00,VWS V14.01,2013-01-03 00:01:00,
2013-01-02 19:06:00,71.7,62.8,30.02,WNW,283,1.7,2.9,73,0.00,,---,0.00,VWS V14.01,2013-01-03 00:06:00,
2013-01-02 19:11:00,72.4,63.8,30.03,WNW,290,0.7,1.5,74,0.00,,---,0.00,VWS V14.01,2013-01-03 00:11:00,
2013-01-02 19:16:00,72.0,63.6,30.03,WNW,284,3.5,3.7,75,0.00,,---,0.00,VWS V14.01,2013-01-03 00:16:00,
2013-01-02 19:21:00,72.1,63.9,30.03,WNW,284,2.4,2.4,75,0.00,,---,0.00,VWS V14.01,2013-01-03 00:21:00,
2013-01-02 19:26:00,72.1,64.1,30.03,WNW,302,2.1,4.7,76,0.00,,---,0.00,VWS V14.01,2013-01-03 00:26:00,
2013-01-02 19:31:00,71.5,63.6,30.03,NW,325,1.3,3.9,76,0.00,,---,0.00,VWS V14.01,2013-01-03 00:31:00,
2013-01-02 19:36:00,72.1,64.2,30.03,NW,315,1.6,1.6,76,0.00,,---,0.00,VWS V14.01,2013-01-03 00:36:00,
2013-01-02 19:41:00,72.1,64.4,30.04,NW,321,1.7,1.7,77,0.00,,---,0.00,VWS V14.01,2013-01-03 00:41:00,
2013-01-02 19:46:00,72.3,64.7,30.04,West,266,0.9,1.2,77,0.00,,---,0.00,VWS V14.01,2013-01-03 00:46:00,
2013-01-02 19:51:00,71.8,64.4,30.04,West,264,1.2,1.6,77,0.00,,---,0.00,VWS V14.01,2013-01-03 00:51:00,
2013-01-02 19:56:00,72.2,64.8,30.04,West,266,1.7,2.0,78,0.00,,---,0.00,VWS V14.01,2013-01-03 00:56:00,
2013-01-02 20:01:00,71.5,64.1,30.05,West,263,0.6,2.3,78,0.00,,---,0.00,VWS V14.01,2013-01-03 01:01:00,
2013-01-02 20:06:00,72.0,64.7,30.05,West,273,1.7,1.7,78,0.00,,---,0.00,VWS V14.01,2013-01-03 01:06:00,
2013-01-02 20:11:00,72.0,64.7,30.05,NW,308,1.1,1.1,78,0.00,,---,0.00,VWS V14.01,2013-01-03 01:11:00,
2013-01-02 20:16:00,71.6,64.3,30.05,WNW,302,0.6,0.6,78,0.00,,---,0.00,VWS V14.01,2013-01-03 01:16:00,
2013-01-02 20:21:00,71.9,64.6,30.05,NW,314,1.9,3.0,78,0.00,,---,0.00,VWS V14.01,2013-01-03 01:21:00,
2013-01-02 20:26:00,71.1,63.9,30.05,NW,304,2.2,2.2,78,0.00,,---,0.00,VWS V14.01,2013-01-03 01:26:00,
2013-01-02 20:31:00,71.8,64.7,30.05,WNW,292,1.1,2.2,78,0.00,,---,0.00,VWS V14.01,2013-01-03 01:31:00,
2013-01-02 20:36:00,71.7,64.7,30.05,West,280,1.1,1.1,79,0.00,,---,0.00,VWS V14.01,2013-01-03 01:36:00,
2013-01-02 20:41:00,71.2,64.4,30.05,West,278,1.1,1.6,79,0.00,,---,0.00,VWS V14.01,2013-01-03 01:41:00,
2013-01-02 20:46:00,71.2,64.5,30.05,WNW,283,1.1,2.2,79,0.00,,---,0.00,VWS V14.01,2013-01-03 01:46:00,
2013-01-02 20:51:00,71.2,64.6,30.05,NNW,342,1.7,3.2,80,0.00,,---,0.00,VWS V14.01,2013-01-03 01:51:00,
2013-01-02 20:56:00,70.5,64.2,30.05,WSW,253,0.2,1.7,80,0.00,,---,0.00,VWS V14.01,2013-01-03 01:56:00,
2013-01-02 21:01:00,70.4,64.1,30.06,West,262,0.0,0.0,80,0.00,,---,0.00,VWS V14.01,2013-01-03 02:01:00,
2013-01-02 21:06:00,70.7,64.5,30.06,West,262,0.0,0.0,81,0.00,,---,0.00,VWS V14.01,2013-01-03 02:06:00,
2013-01-02 21:11:00,69.8,63.8,30.06,WSW,246,0.6,2.6,81,0.00,,---,0.00,VWS V14.01,2013-01-03 02:11:00,
2013-01-02 21:16:00,69.8,64.0,30.06,West,264,1.2,1.9,82,0.00,,---,0.00,VWS V14.01,2013-01-03 02:16:00,
2013-01-02 21:21:00,70.0,64.4,30.06,West,270,2.0,2.1,82,0.00,,---,0.00,VWS V14.01,2013-01-03 02:21:00,
2013-01-02 21:26:00,70.1,64.6,30.07,West,262,0.0,0.0,83,0.00,,---,0.00,VWS V14.01,2013-01-03 02:26:00,
2013-01-02 21:31:00,69.9,64.6,30.07,West,281,1.6,2.6,83,0.00,,---,0.00,VWS V14.01,2013-01-03 02:31:00,
2013-01-02 21:36:00,69.6,64.4,30.07,West,263,0.0,0.0,84,0.00,,---,0.00,VWS V14.01,2013-01-03 02:36:00,
2013-01-02 21:41:00,69.5,64.5,30.07,WNW,287,1.1,2.1,84,0.00,,---,0.00,VWS V14.01,2013-01-03 02:41:00,
2013-01-02 21:46:00,69.1,64.2,30.07,WNW,290,2.1,2.5,84,0.00,,---,0.00,VWS V14.01,2013-01-03 02:46:00,
2013-01-02 21:51:00,69.4,64.7,30.07,WNW,292,3.2,3.2,85,0.00,,---,0.00,VWS V14.01,2013-01-03 02:51:00,
2013-01-02 21:56:00,68.9,64.2,30.07,WNW,294,2.6,3.2,85,0.00,,---,0.00,VWS V14.01,2013-01-03 02:56:00,
2013-01-02 22:01:00,69.4,64.9,30.08,WNW,283,0.0,0.0,86,0.00,,---,0.00,VWS V14.01,2013-01-03 03:01:00,
2013-01-02 22:06:00,68.9,64.7,30.08,WSW,239,0.0,0.0,86,0.00,,---,0.00,VWS V14.01,2013-01-03 03:06:00,
2013-01-02 22:11:00,69.3,65.2,30.08,WSW,257,1.4,1.4,87,0.00,,---,0.00,VWS V14.01,2013-01-03 03:11:00,
2013-01-02 22:16:00,68.7,64.8,30.07,WNW,290,1.3,2.1,87,0.00,,---,0.00,VWS V14.01,2013-01-03 03:16:00,
2013-01-02 22:21:00,69.6,65.8,30.08,WSW,243,0.0,0.0,88,0.00,,---,0.00,VWS V14.01,2013-01-03 03:21:00,
2013-01-02 22:26:00,69.1,65.4,30.07,WSW,250,0.0,0.0,88,0.00,,---,0.00,VWS V14.01,2013-01-03 03:26:00,
2013-01-02 22:31:00,69.5,65.8,30.07,West,266,0.9,1.4,88,0.00,,---,0.00,VWS V14.01,2013-01-03 03:31:00,
2013-01-02 22:37:00,69.4,65.9,30.07,West,277,0.9,1.4,88,0.00,,---,0.00,VWS V14.01,2013-01-03 03:37:00,
2013-01-02 22:42:00,68.7,65.2,30.08,West,274,0.0,0.0,88,0.00,,---,0.00,VWS V14.01,2013-01-03 03:42:00,
2013-01-02 22:47:00,68.4,65.0,30.08,West,274,0.0,0.0,89,0.00,,---,0.00,VWS V14.01,2013-01-03 03:47:00,
2013-01-02 22:52:00,69.3,66.0,30.08,West,274,0.0,0.0,89,0.00,,---,0.00,VWS V14.01,2013-01-03 03:52:00,
2013-01-02 22:57:00,68.6,65.3,30.08,West,274,0.0,0.0,89,0.00,,---,0.00,VWS V14.01,2013-01-03 03:57:00,
2013-01-02 23:02:00,68.7,65.6,30.08,West,278,0.0,0.0,90,0.00,,---,0.00,VWS V14.01,2013-01-03 04:02:00,
2013-01-02 23:07:00,68.9,65.9,30.07,WSW,255,0.0,0.0,90,0.00,,---,0.00,VWS V14.01,2013-01-03 04:07:00,
2013-01-02 23:12:00,68.8,66.0,30.07,West,259,0.9,2.0,91,0.00,,---,0.00,VWS V14.01,2013-01-03 04:12:00,
2013-01-02 23:17:00,68.8,66.0,30.07,WSW,252,0.0,0.0,91,0.00,,---,0.00,VWS V14.01,2013-01-03 04:17:00,
2013-01-02 23:22:00,68.6,65.9,30.07,West,269,1.4,2.1,91,0.00,,---,0.00,VWS V14.01,2013-01-03 04:22:00,
2013-01-02 23:27:00,68.3,65.7,30.07,SW,222,0.9,2.1,92,0.00,,---,0.00,VWS V14.01,2013-01-03 04:27:00,
2013-01-02 23:32:00,68.8,66.3,30.07,SW,214,0.0,0.0,92,0.00,,---,0.00,VWS V14.01,2013-01-03 04:32:00,
2013-01-02 23:37:00,68.6,66.2,30.07,SW,214,0.0,0.0,92,0.00,,---,0.00,VWS V14.01,2013-01-03 04:37:00,
2013-01-02 23:42:00,68.4,66.0,30.06,SW,214,0.0,0.0,92,0.00,,---,0.00,VWS V14.01,2013-01-03 04:42:00,
2013-01-02 23:47:00,68.4,65.9,30.06,SW,214,0.0,0.0,92,0.00,,---,0.00,VWS V14.01,2013-01-03 04:47:00,
2013-01-02 23:52:00,68.4,66.0,30.06,SW,214,0.0,0.0,92,0.00,,---,0.00,VWS V14.01,2013-01-03 04:52:00,
2013-01-02 23:57:00,67.5,65.2,30.06,SW,214,0.0,0.0,92,0.00,,---,0.00,VWS V14.01,2013-01-03 04:57:00,